Carr Mill, Alabama
Current Conditions -  °F | °C
As of 6:35 PM on Monday 22 Dec 2014 (Local Time) from KALX Reporting Station
Light Rain Light Rain  
Wind Chill: 54°   Ceiling: 600
Heat Index: 54°   Visibility: 7mi
Dew Point: 50°   Wind: 7mph
Humidity: 86%   Direction: 120°ESE
Pressure: 29.84"   Gusts: NA
Location:  33.2143°N, 85.8209°W
Report Text: KALX 230035Z AUTO 12006KT 7SM -RA OVC006 12/10 A2984 RMK AO2 LTG DSNT SW P0005 T01230101
Loading
Personal Weather Stations






























Interactive Weather Map New forecast layout! Learn more

10-Day Weather Forecast

Advertisements
Track Severe Weather on mobile